createdAt,value
2019-02-18T00:00:52.783Z,16.1
2019-02-18T00:01:55.210Z,16.1
2019-02-18T00:02:57.643Z,15.9
2019-02-18T00:04:00.312Z,16
2019-02-18T00:05:02.745Z,16.1
2019-02-18T00:06:04.907Z,16.1
2019-02-18T00:08:12.330Z,16.2
2019-02-18T00:09:14.480Z,16.1
2019-02-18T00:10:16.915Z,16.1
2019-02-18T00:11:19.344Z,16
2019-02-18T00:12:21.523Z,15.9
2019-02-18T00:13:23.942Z,16
2019-02-18T00:14:26.099Z,16.1
2019-02-18T00:15:27.965Z,16.1
2019-02-18T00:16:30.118Z,16.1
2019-02-18T00:17:32.547Z,16.1
2019-02-18T00:18:34.965Z,16
2019-02-18T00:19:36.852Z,16
2019-02-18T00:20:39.283Z,16
2019-02-18T00:21:41.435Z,16.2
2019-02-18T00:22:43.592Z,16.1
2019-02-18T00:23:46.023Z,16.1
2019-02-18T00:24:48.205Z,16.1
2019-02-18T00:25:50.358Z,16
2019-02-18T00:26:52.790Z,16.1
2019-02-18T00:27:55.239Z,16.1
2019-02-18T00:28:57.427Z,16.1
2019-02-18T00:29:59.861Z,16.1
2019-02-18T00:31:02.281Z,16
2019-02-18T00:32:04.735Z,16.3
2019-02-18T00:33:07.163Z,16.2
2019-02-18T00:34:09.613Z,16.2
2019-02-18T00:35:12.043Z,16.2
2019-02-18T00:36:14.534Z,16.2
2019-02-18T00:38:21.673Z,16.1
2019-02-18T00:39:23.276Z,16.1
2019-02-18T00:40:25.139Z,16.3
2019-02-18T00:41:27.563Z,16.2
2019-02-18T00:42:29.725Z,16.2
2019-02-18T00:43:31.889Z,16.2
2019-02-18T00:44:34.076Z,16.2
2019-02-18T00:45:36.246Z,16.2
2019-02-18T00:46:38.686Z,16.2
2019-02-18T00:47:41.121Z,16.2
2019-02-18T00:48:43.584Z,16.2
2019-02-18T00:49:45.751Z,16.2
2019-02-18T00:50:48.182Z,16.2
2019-02-18T00:51:50.322Z,16.3
2019-02-18T00:52:52.496Z,16.2
2019-02-18T00:53:54.974Z,16.3
2019-02-18T00:54:57.134Z,16.2
2019-02-18T00:55:59.026Z,16.1
2019-02-18T00:57:01.462Z,16.2
2019-02-18T00:58:03.893Z,16.2
2019-02-18T00:59:05.771Z,16.3
2019-02-18T01:00:07.940Z,16.2
2019-02-18T01:01:09.814Z,16.3
2019-02-18T01:02:11.965Z,16.2
2019-02-18T01:03:14.413Z,16.3
2019-02-18T01:04:16.575Z,16.3
2019-02-18T01:05:18.723Z,16.2
2019-02-18T01:06:20.604Z,16.2
2019-02-18T01:07:22.767Z,16.3
2019-02-18T01:08:30.289Z,16.3
2019-02-18T01:09:32.718Z,16.3
2019-02-18T01:10:35.142Z,16.3
2019-02-18T01:11:37.301Z,16.3
2019-02-18T01:12:38.926Z,16.2
2019-02-18T01:13:41.375Z,16.3
2019-02-18T01:14:43.807Z,16.4
2019-02-18T01:15:46.234Z,16.3
2019-02-18T01:16:48.653Z,16.4
2019-02-18T01:17:50.528Z,16.4
2019-02-18T01:18:52.954Z,16.3
2019-02-18T01:19:55.105Z,16.3
2019-02-18T01:20:57.546Z,16.3
2019-02-18T01:21:59.962Z,16.4
2019-02-18T01:23:02.104Z,16.3
2019-02-18T01:24:04.225Z,16.5
2019-02-18T01:25:06.083Z,16.4
2019-02-18T01:26:08.499Z,16.5
2019-02-18T01:27:10.660Z,16.4
2019-02-18T01:28:13.092Z,16.3
2019-02-18T01:29:15.232Z,16.4
2019-02-18T01:30:17.677Z,16.4
2019-02-18T01:31:20.116Z,16.4
2019-02-18T01:32:22.277Z,16.4
2019-02-18T01:33:24.701Z,16.4
2019-02-18T01:34:27.138Z,16.4
2019-02-18T01:35:29.552Z,16.4
2019-02-18T01:36:31.424Z,16.4
2019-02-18T01:37:33.854Z,16.5
2019-02-18T01:38:40.011Z,16.5
2019-02-18T01:39:42.443Z,16.4
2019-02-18T01:40:44.872Z,16.5
2019-02-18T01:41:46.745Z,16.4
2019-02-18T01:42:48.915Z,16.5
2019-02-18T01:43:51.345Z,16.5
2019-02-18T01:44:53.774Z,16.5
2019-02-18T01:45:56.201Z,16.4
2019-02-18T01:46:58.104Z,16.5
2019-02-18T01:48:00.545Z,16.5
2019-02-18T01:49:02.424Z,16.5
2019-02-18T01:50:04.862Z,16.5
2019-02-18T01:51:07.291Z,16.5
2019-02-18T01:52:09.451Z,16.5
2019-02-18T01:53:11.610Z,16.4
2019-02-18T01:54:13.508Z,16.6
2019-02-18T01:55:15.923Z,16.5
2019-02-18T01:56:18.084Z,16.5
2019-02-18T01:57:19.965Z,16.5
2019-02-18T01:58:21.818Z,16.6
2019-02-18T01:59:23.957Z,16.5
2019-02-18T02:00:26.119Z,16.6
2019-02-18T02:01:28.556Z,16.5
2019-02-18T02:02:30.702Z,16.6
2019-02-18T02:03:33.125Z,16.5
2019-02-18T02:04:35.295Z,16.6
2019-02-18T02:05:37.712Z,16.6
2019-02-18T02:06:40.144Z,16.5
2019-02-18T02:07:42.041Z,16.6
2019-02-18T02:08:44.183Z,16.5
2019-02-18T02:09:46.614Z,16.6
2019-02-18T02:10:49.050Z,16.6
2019-02-18T02:11:51.225Z,16.5
2019-02-18T02:12:53.369Z,16.6
2019-02-18T02:13:55.535Z,16.6
2019-02-18T02:14:57.705Z,16.4
2019-02-18T02:16:00.132Z,16.6
2019-02-18T02:17:02.573Z,16.7
2019-02-18T02:18:05.005Z,16.6
2019-02-18T02:19:07.424Z,16.6
2019-02-18T02:20:09.572Z,16.6
2019-02-18T02:21:11.732Z,16.6
2019-02-18T02:22:14.164Z,16.6
2019-02-18T02:23:16.309Z,16.6
2019-02-18T02:24:18.468Z,16.6
2019-02-18T02:25:20.883Z,16.6
2019-02-18T02:26:23.022Z,16.7
2019-02-18T02:27:25.513Z,16.6
2019-02-18T02:28:27.670Z,16.6
2019-02-18T02:29:29.574Z,16.5
2019-02-18T02:30:32.049Z,16.6
2019-02-18T02:31:34.473Z,16.6
2019-02-18T02:32:36.925Z,16.7
2019-02-18T02:33:38.787Z,16.6
2019-02-18T02:34:41.217Z,16.6
2019-02-18T02:35:43.384Z,16.6
2019-02-18T02:36:45.545Z,16.6
2019-02-18T02:37:47.990Z,16.6
2019-02-18T02:38:50.155Z,16.6
2019-02-18T02:39:52.336Z,16.6
2019-02-18T02:40:54.489Z,16.6
2019-02-18T02:41:56.924Z,16.6
2019-02-18T02:42:58.808Z,16.7
2019-02-18T02:44:00.957Z,16.7
2019-02-18T02:45:03.424Z,16.6
2019-02-18T02:46:05.852Z,16.7
2019-02-18T02:47:08.013Z,16.7
2019-02-18T02:48:10.166Z,16.7
2019-02-18T02:49:12.621Z,16.6
2019-02-18T02:50:14.800Z,16.6
2019-02-18T02:51:17.227Z,16.7
2019-02-18T02:52:19.392Z,16.6
2019-02-18T02:53:21.821Z,16.7
2019-02-18T02:54:23.736Z,16.6
2019-02-18T02:55:25.962Z,16.6
2019-02-18T02:56:28.437Z,16.6
2019-02-18T02:57:30.588Z,16.6
2019-02-18T02:58:33.031Z,16.5
2019-02-18T02:59:35.547Z,16.5
2019-02-18T03:00:37.414Z,16.6
2019-02-18T03:01:39.852Z,16.6
2019-02-18T03:02:42.289Z,16.6
2019-02-18T03:03:44.736Z,16.6
2019-02-18T03:04:47.171Z,16.6
2019-02-18T03:05:49.066Z,16.6
2019-02-18T03:06:51.236Z,16.6
2019-02-18T03:07:53.384Z,16.6
2019-02-18T03:08:55.813Z,16.6
2019-02-18T03:09:58.251Z,16.6
2019-02-18T03:11:00.684Z,16.6
2019-02-18T03:12:03.103Z,16.7
2019-02-18T03:13:04.710Z,16.7
2019-02-18T03:14:07.142Z,16.5
2019-02-18T03:15:09.280Z,16.6
2019-02-18T03:16:11.523Z,16.7
2019-02-18T03:17:13.688Z,16.6
2019-02-18T03:18:15.832Z,16.7
2019-02-18T03:19:18.267Z,16.7
2019-02-18T03:20:20.416Z,16.7
2019-02-18T03:21:22.898Z,16.6
2019-02-18T03:22:25.026Z,16.6
2019-02-18T03:23:27.459Z,16.6
2019-02-18T03:24:29.881Z,16.7
2019-02-18T03:25:32.045Z,16.6
2019-02-18T03:26:34.212Z,16.6
2019-02-18T03:27:36.394Z,16.6
2019-02-18T03:28:38.811Z,16.7
2019-02-18T03:29:41.258Z,16.6
2019-02-18T03:30:43.709Z,16.7
2019-02-18T03:31:45.870Z,16.6
2019-02-18T03:32:48.412Z,16.6
2019-02-18T03:33:50.305Z,16.6
2019-02-18T03:34:52.431Z,16.6
2019-02-18T03:35:54.860Z,16.6
2019-02-18T03:36:57.302Z,16.5
2019-02-18T03:37:59.724Z,16.6
2019-02-18T03:39:01.893Z,16.6
2019-02-18T03:40:04.040Z,16.7
2019-02-18T03:41:06.181Z,16.6
2019-02-18T03:42:08.604Z,16.6
2019-02-18T03:43:11.033Z,16.7
2019-02-18T03:44:13.462Z,16.6
2019-02-18T03:45:15.944Z,16.7
2019-02-18T03:46:18.098Z,16.6
2019-02-18T03:47:20.254Z,16.6
2019-02-18T03:48:22.409Z,16.7
2019-02-18T03:49:24.555Z,16.7
2019-02-18T03:50:26.987Z,16.7
2019-02-18T03:51:29.153Z,16.6
2019-02-18T03:52:31.318Z,16.7
2019-02-18T03:53:33.744Z,16.6
2019-02-18T03:54:36.172Z,16.6
2019-02-18T03:55:38.333Z,16.6
2019-02-18T03:56:40.844Z,16.7
2019-02-18T03:57:42.527Z,16.6
2019-02-18T03:58:44.981Z,16.5
2019-02-18T03:59:47.404Z,16.6
2019-02-18T04:00:49.569Z,16.5
2019-02-18T04:01:52.013Z,16.7
2019-02-18T04:02:54.565Z,16.7
2019-02-18T04:03:56.436Z,16.6
2019-02-18T04:04:58.592Z,16.5
2019-02-18T04:06:01.033Z,16.6
2019-02-18T04:07:03.450Z,16.6
2019-02-18T04:08:05.331Z,16.5
2019-02-18T04:09:07.744Z,16.6
2019-02-18T04:10:09.900Z,16.5
2019-02-18T04:11:12.337Z,16.5
2019-02-18T04:12:14.766Z,16.4
2019-02-18T04:13:17.200Z,16.6
2019-02-18T04:14:19.374Z,16.5
2019-02-18T04:15:21.801Z,16.6
2019-02-18T04:16:24.272Z,16.5
2019-02-18T04:17:26.438Z,16.6
2019-02-18T04:18:28.872Z,16.5
2019-02-18T04:19:31.331Z,16.5
2019-02-18T04:20:33.768Z,16.4
2019-02-18T04:21:36.195Z,16.6
2019-02-18T04:22:38.324Z,16.5
2019-02-18T04:23:40.502Z,16.3
2019-02-18T04:24:42.669Z,16.4
2019-02-18T04:25:45.094Z,16.5
2019-02-18T04:26:47.252Z,16.4
2019-02-18T04:27:49.420Z,16.4
2019-02-18T04:28:51.594Z,16.5
2019-02-18T04:29:53.750Z,16.3
2019-02-18T04:30:56.175Z,16.4
2019-02-18T04:31:58.074Z,16.4
2019-02-18T04:33:00.501Z,16.3
2019-02-18T04:34:02.944Z,16.4
2019-02-18T04:35:05.362Z,16.4
2019-02-18T04:36:07.531Z,16.4
2019-02-18T04:37:09.676Z,16.3
2019-02-18T04:38:11.804Z,16.3
2019-02-18T04:39:13.928Z,16.3
2019-02-18T04:40:16.102Z,16.3
2019-02-18T04:41:18.520Z,16.3
2019-02-18T04:42:20.748Z,16.3
2019-02-18T04:43:23.647Z,16.3
2019-02-18T04:44:25.967Z,16.3
2019-02-18T04:45:28.438Z,16.3
2019-02-18T04:46:30.590Z,16.2
2019-02-18T04:47:32.744Z,16.3
2019-02-18T04:48:34.876Z,16.3
2019-02-18T04:49:37.342Z,16.2
2019-02-18T04:50:39.768Z,16.3
2019-02-18T04:51:42.213Z,16.2
2019-02-18T04:52:44.665Z,16.2
2019-02-18T04:53:47.095Z,16.3
2019-02-18T04:54:49.549Z,16.3
2019-02-18T04:55:51.697Z,16.3
2019-02-18T04:56:53.872Z,16.3
2019-02-18T04:57:56.077Z,16.3
2019-02-18T04:58:58.251Z,16.2
2019-02-18T05:00:00.517Z,16.3
2019-02-18T05:01:03.598Z,16.3
2019-02-18T05:02:06.042Z,16.2
2019-02-18T05:03:08.177Z,16.3
2019-02-18T05:04:10.602Z,16.3
2019-02-18T05:05:16.752Z,16.2
2019-02-18T05:06:19.186Z,16.3
2019-02-18T05:07:21.314Z,16.3
2019-02-18T05:08:23.748Z,16.3
2019-02-18T05:09:26.184Z,16.2
2019-02-18T05:10:28.612Z,16.3
2019-02-18T05:11:30.769Z,16.2
2019-02-18T05:12:32.665Z,16.3
2019-02-18T05:13:34.794Z,16.3
2019-02-18T05:14:37.228Z,16.3
2019-02-18T05:15:41.094Z,16.2
2019-02-18T05:16:43.525Z,16.3
2019-02-18T05:17:45.686Z,16.3
2019-02-18T05:18:47.836Z,16.2
2019-02-18T05:19:50.279Z,16.3
2019-02-18T05:20:52.928Z,16.3
2019-02-18T05:21:55.561Z,16.2
2019-02-18T05:22:58.080Z,16.3
2019-02-18T05:24:00.271Z,16.2
2019-02-18T05:25:02.737Z,16.2
2019-02-18T05:26:04.898Z,16.3
2019-02-18T05:27:07.096Z,16.2
2019-02-18T05:28:09.245Z,16.2
2019-02-18T05:29:11.419Z,16.3
2019-02-18T05:30:13.849Z,16.2
2019-02-18T05:31:16.286Z,16.2
2019-02-18T05:32:18.728Z,16.2
2019-02-18T05:33:20.612Z,16.2
2019-02-18T05:34:22.795Z,16.3
2019-02-18T05:35:25.256Z,16.2
2019-02-18T05:36:27.753Z,16.3
2019-02-18T05:37:30.199Z,16.2
2019-02-18T05:38:32.620Z,16.2
2019-02-18T05:39:35.045Z,16.2
2019-02-18T05:40:37.315Z,16.2
2019-02-18T05:41:39.525Z,16.2
2019-02-18T05:42:41.382Z,16.2
2019-02-18T05:43:43.825Z,16.3
2019-02-18T05:44:46.262Z,16.3
2019-02-18T05:45:48.476Z,16.2
2019-02-18T05:46:50.657Z,16.2
2019-02-18T05:47:53.093Z,16.3
2019-02-18T05:48:55.527Z,16.2
2019-02-18T05:49:57.959Z,16.1
2019-02-18T05:51:00.134Z,16.2
2019-02-18T05:52:02.564Z,16.2
2019-02-18T05:53:04.716Z,16.1
2019-02-18T05:54:07.160Z,16.1
2019-02-18T05:55:09.598Z,16.2
2019-02-18T05:56:11.757Z,16.2
2019-02-18T05:57:13.937Z,16.2
2019-02-18T05:58:16.086Z,16.2
2019-02-18T05:59:17.984Z,16.2
2019-02-18T06:00:20.498Z,16.2
2019-02-18T06:01:22.121Z,16.2
2019-02-18T06:02:24.274Z,16.2
2019-02-18T06:03:26.705Z,16.2
2019-02-18T06:04:28.341Z,16.2
2019-02-18T06:05:30.811Z,16.2
2019-02-18T06:06:33.225Z,16.2
2019-02-18T06:07:35.670Z,16.2
2019-02-18T06:08:37.546Z,16.2
2019-02-18T06:09:39.965Z,16.2
2019-02-18T06:10:42.408Z,16.2
2019-02-18T06:11:44.851Z,16.2
2019-02-18T06:12:47.287Z,16.2
2019-02-18T06:13:49.713Z,16.2
2019-02-18T06:14:51.930Z,16.2
2019-02-18T06:15:54.071Z,16.1
2019-02-18T06:16:56.494Z,16.2
2019-02-18T06:17:58.921Z,16.2
2019-02-18T06:19:01.093Z,16.2
2019-02-18T06:20:03.533Z,16.2
2019-02-18T06:21:05.979Z,16.2
2019-02-18T06:22:08.119Z,16.2
2019-02-18T06:23:09.982Z,16.2
2019-02-18T06:24:12.171Z,16.2
2019-02-18T06:25:14.625Z,16.2
2019-02-18T06:26:16.803Z,16.1
2019-02-18T06:27:19.266Z,16.1
2019-02-18T06:28:21.689Z,16.3
2019-02-18T06:29:23.558Z,16.1
2019-02-18T06:30:25.983Z,16.1
2019-02-18T06:31:28.421Z,16.2
2019-02-18T06:32:30.359Z,16.2
2019-02-18T06:33:32.789Z,16.2
2019-02-18T06:34:35.272Z,16.1
2019-02-18T06:35:37.700Z,16.1
2019-02-18T06:36:40.127Z,16.2
2019-02-18T06:37:42.566Z,16.2
2019-02-18T06:38:45.000Z,16.1
2019-02-18T06:39:47.153Z,16.2
2019-02-18T06:40:49.306Z,16.1
2019-02-18T06:41:51.425Z,16.2
2019-02-18T06:42:53.574Z,16.2
2019-02-18T06:43:55.453Z,16.1
2019-02-18T06:44:57.912Z,16.2
2019-02-18T06:46:00.352Z,16.2
2019-02-18T06:47:02.794Z,16.2
2019-02-18T06:48:04.667Z,16.2
2019-02-18T06:49:07.101Z,16.2
2019-02-18T06:50:09.267Z,16.1
2019-02-18T06:51:11.452Z,16.2
2019-02-18T06:52:13.604Z,16.2
2019-02-18T06:53:16.025Z,16.1
2019-02-18T06:54:18.170Z,16.1
2019-02-18T06:55:20.589Z,16.2
2019-02-18T06:56:22.462Z,16.2
2019-02-18T06:57:24.888Z,16.2
2019-02-18T06:58:26.807Z,16.1
2019-02-18T06:59:28.675Z,16.2
2019-02-18T07:00:31.099Z,16.1
2019-02-18T07:01:33.287Z,16.1
2019-02-18T07:02:35.170Z,16.2
2019-02-18T07:03:37.349Z,16.1
2019-02-18T07:04:39.780Z,16.1
2019-02-18T07:05:42.481Z,16.2
2019-02-18T07:06:44.907Z,16.1
2019-02-18T07:07:47.337Z,16.2
2019-02-18T07:08:49.224Z,16.1
2019-02-18T07:09:52.269Z,16.1
2019-02-18T07:10:54.717Z,16.1
2019-02-18T07:11:57.155Z,16.1
2019-02-18T07:12:59.593Z,16.1
2019-02-18T07:14:02.026Z,16.1
2019-02-18T07:15:04.455Z,16.2
2019-02-18T07:16:06.604Z,16.2
2019-02-18T07:18:13.447Z,16.1
2019-02-18T07:19:15.310Z,16.2
2019-02-18T07:20:17.740Z,16.1
2019-02-18T07:21:19.893Z,16.2
2019-02-18T07:22:22.336Z,16.2
2019-02-18T07:23:24.503Z,16
2019-02-18T07:24:26.945Z,16.1
2019-02-18T07:25:29.365Z,16.1
2019-02-18T07:26:31.521Z,16
2019-02-18T07:27:33.655Z,16.1
2019-02-18T07:28:35.806Z,16.1
2019-02-18T07:29:37.989Z,16.1
2019-02-18T07:30:39.863Z,16.2
2019-02-18T07:31:42.002Z,16.1
2019-02-18T07:32:43.860Z,16.1
2019-02-18T07:33:45.740Z,16.1
2019-02-18T07:34:47.904Z,16.2
2019-02-18T07:35:50.330Z,16.1
2019-02-18T07:36:52.748Z,16.1
2019-02-18T07:37:55.195Z,16.2
2019-02-18T07:38:57.652Z,16.1
2019-02-18T07:41:05.074Z,16.2
2019-02-18T07:42:06.933Z,16.2
2019-02-18T07:43:09.087Z,16.1
2019-02-18T07:44:11.518Z,16.1
2019-02-18T07:45:13.675Z,16.1
2019-02-18T07:46:15.605Z,16.2
2019-02-18T07:47:18.046Z,16.1
2019-02-18T07:48:20.236Z,16.2
2019-02-18T07:49:22.420Z,16.2
2019-02-18T07:50:24.599Z,16.1
2019-02-18T07:51:27.050Z,16
2019-02-18T07:52:29.227Z,16.1
2019-02-18T07:53:31.406Z,16.1
2019-02-18T07:54:33.859Z,16.2
2019-02-18T07:55:36.354Z,16.1
2019-02-18T07:56:38.773Z,16.2
2019-02-18T07:57:40.923Z,16.2
2019-02-18T07:58:43.088Z,16.1
2019-02-18T07:59:45.253Z,16.2
2019-02-18T08:00:47.674Z,16.1
2019-02-18T08:01:50.099Z,16.1
2019-02-18T08:02:52.527Z,16.2
2019-02-18T08:03:54.405Z,16.1
2019-02-18T08:04:56.615Z,16.1
2019-02-18T08:05:59.035Z,16.1
2019-02-18T08:07:01.465Z,16
2019-02-18T08:08:03.912Z,16.1
2019-02-18T08:09:06.334Z,16.2
2019-02-18T08:11:13.741Z,16.1
2019-02-18T08:12:16.169Z,16.1
2019-02-18T08:13:18.589Z,16
2019-02-18T08:14:20.445Z,16.1
2019-02-18T08:15:22.871Z,16.2
2019-02-18T08:16:25.023Z,16.2
2019-02-18T08:17:27.175Z,16
2019-02-18T08:18:29.593Z,16.1
2019-02-18T08:19:32.059Z,16.1
2019-02-18T08:20:34.482Z,16.2
2019-02-18T08:21:36.911Z,16.2
2019-02-18T08:22:39.045Z,16
2019-02-18T08:23:41.469Z,16
2019-02-18T08:24:43.904Z,16.1
2019-02-18T08:25:46.338Z,16.1
2019-02-18T08:26:48.497Z,16.1
2019-02-18T08:27:50.636Z,16.1
2019-02-18T08:28:53.066Z,16.1
2019-02-18T08:29:55.492Z,16.1
2019-02-18T08:30:57.916Z,16
2019-02-18T08:32:00.046Z,16
2019-02-18T08:33:02.477Z,16.1
2019-02-18T08:34:04.646Z,16.1
2019-02-18T08:35:07.107Z,16.1
2019-02-18T08:36:08.726Z,16.1
2019-02-18T08:37:10.904Z,16.2
2019-02-18T08:38:13.064Z,16.1
2019-02-18T08:39:15.224Z,16
2019-02-18T08:41:22.374Z,16.1
2019-02-18T08:42:24.804Z,16.1
2019-02-18T08:43:27.234Z,16.1
2019-02-18T08:44:29.721Z,16.1
2019-02-18T08:45:32.756Z,16.1
2019-02-18T08:46:34.346Z,16.1
2019-02-18T08:47:36.797Z,16.1
2019-02-18T08:48:38.685Z,16.1
2019-02-18T08:49:41.122Z,16.1
2019-02-18T08:50:43.565Z,16
2019-02-18T08:51:46.008Z,16.1
2019-02-18T08:52:48.157Z,16.1
2019-02-18T08:53:50.572Z,16.1
2019-02-18T08:55:57.997Z,16.2
2019-02-18T08:57:00.170Z,16.2
2019-02-18T08:58:02.346Z,16.1
2019-02-18T08:59:04.505Z,16.1
2019-02-18T09:00:06.926Z,16.1
2019-02-18T09:01:09.078Z,16.1
2019-02-18T09:02:10.958Z,16.1
2019-02-18T09:03:13.391Z,16.2
2019-02-18T09:04:15.297Z,16.1
2019-02-18T09:05:17.681Z,16.1
2019-02-18T09:06:20.641Z,16
2019-02-18T09:07:22.844Z,16.1
2019-02-18T09:08:24.742Z,16.1
2019-02-18T09:09:26.914Z,16.1
2019-02-18T09:11:34.326Z,16.1
2019-02-18T09:12:36.749Z,16.1
2019-02-18T09:13:38.902Z,16.1
2019-02-18T09:14:41.067Z,16.1
2019-02-18T09:15:43.223Z,16.1
2019-02-18T09:16:45.398Z,16.1
2019-02-18T09:17:47.824Z,16.1
2019-02-18T09:18:50.254Z,16.1
2019-02-18T09:19:52.671Z,16.1
2019-02-18T09:20:55.098Z,16.2
2019-02-18T09:21:57.238Z,16.1
2019-02-18T09:22:59.662Z,16
2019-02-18T09:24:01.271Z,16.1
2019-02-18T09:25:03.443Z,16.1
2019-02-18T09:26:05.608Z,16
2019-02-18T09:27:08.047Z,16.1
2019-02-18T09:28:10.476Z,16.2
2019-02-18T09:29:12.624Z,16.1
2019-02-18T09:30:15.045Z,16.1
2019-02-18T09:31:17.194Z,16.1
2019-02-18T09:32:19.625Z,16
2019-02-18T09:33:21.765Z,16.1
2019-02-18T09:34:24.240Z,16.1
2019-02-18T09:35:26.680Z,16.1
2019-02-18T09:36:28.554Z,16.1
2019-02-18T09:37:30.995Z,16.1
2019-02-18T09:38:32.887Z,16
2019-02-18T09:39:34.767Z,16.2
2019-02-18T09:41:41.892Z,16.1
2019-02-18T09:42:43.774Z,16.1
2019-02-18T09:43:45.916Z,16.1
2019-02-18T09:44:47.827Z,16.1
2019-02-18T09:45:49.974Z,16
2019-02-18T09:46:52.141Z,16.1
2019-02-18T09:47:55.032Z,16.1
2019-02-18T09:48:57.191Z,16.1
2019-02-18T09:49:59.086Z,16.1
2019-02-18T09:51:01.354Z,16.3
2019-02-18T09:52:03.531Z,16.1
2019-02-18T09:53:05.715Z,16.1
2019-02-18T09:54:08.158Z,16.1
2019-02-18T09:55:10.330Z,16.1
2019-02-18T09:56:12.504Z,16.1
2019-02-18T09:57:14.940Z,16.2
2019-02-18T09:58:17.276Z,16.1
2019-02-18T09:59:19.414Z,16.1
2019-02-18T10:00:21.875Z,16.1
2019-02-18T10:01:24.298Z,16.1
2019-02-18T10:02:26.724Z,16
2019-02-18T10:04:33.584Z,16.1
2019-02-18T10:05:36.027Z,16.1
2019-02-18T10:06:38.454Z,16.1
2019-02-18T10:07:40.607Z,16.2
2019-02-18T10:08:43.033Z,16.1
2019-02-18T10:09:45.463Z,16.1
2019-02-18T10:11:52.574Z,16.1
2019-02-18T10:12:54.737Z,16.1
2019-02-18T10:13:57.176Z,16.1
2019-02-18T10:14:59.355Z,16
2019-02-18T10:16:01.233Z,16.2
2019-02-18T10:17:03.654Z,16.1
2019-02-18T10:18:06.089Z,16.1
2019-02-18T10:19:08.236Z,16.2
2019-02-18T10:20:10.664Z,16.2
2019-02-18T10:21:12.543Z,16.2
2019-02-18T10:22:14.720Z,16.2
2019-02-18T10:23:17.152Z,16.2
2019-02-18T10:24:19.581Z,16.1
2019-02-18T10:25:21.747Z,16.2
2019-02-18T10:26:24.183Z,16.1
2019-02-18T10:27:26.622Z,16.1
2019-02-18T10:28:28.785Z,16.1
2019-02-18T10:29:31.210Z,16.1
2019-02-18T10:30:33.103Z,16.1
2019-02-18T10:31:34.994Z,16.1
2019-02-18T10:32:36.888Z,16.1
2019-02-18T10:33:39.315Z,16.1
2019-02-18T10:34:41.461Z,16.2
2019-02-18T10:35:43.069Z,16.1
2019-02-18T10:36:45.497Z,16.1
2019-02-18T10:38:52.384Z,16.1
2019-02-18T10:39:54.285Z,16.2
2019-02-18T10:42:01.715Z,16.1
2019-02-18T10:43:03.584Z,16.1
2019-02-18T10:44:05.753Z,16.2
2019-02-18T10:45:07.638Z,16.2
2019-02-18T10:46:09.219Z,16.1
2019-02-18T10:47:11.384Z,16.1
2019-02-18T10:48:14.088Z,16.1
2019-02-18T10:50:22.136Z,16.1
2019-02-18T10:51:24.565Z,16.2
2019-02-18T10:52:26.458Z,16.2
2019-02-18T10:53:28.691Z,16.2
2019-02-18T10:54:31.167Z,16.1
2019-02-18T10:55:33.701Z,16.1
2019-02-18T10:56:35.573Z,16.1
2019-02-18T10:57:37.715Z,16.1
2019-02-18T10:58:39.868Z,16.2
2019-02-18T10:59:42.695Z,16.1
2019-02-18T11:00:45.623Z,16.2
2019-02-18T11:01:48.050Z,16.2
2019-02-18T11:02:50.225Z,16.2
2019-02-18T11:03:52.384Z,16.2
2019-02-18T11:04:54.284Z,16.1
2019-02-18T11:05:56.454Z,16.1
2019-02-18T11:06:58.876Z,16.1
2019-02-18T11:08:01.316Z,16.1
2019-02-18T11:09:03.226Z,16.1
2019-02-18T11:10:05.668Z,16.2
2019-02-18T11:12:13.082Z,16.1
2019-02-18T11:13:15.506Z,16.2
2019-02-18T11:14:17.944Z,16.2
2019-02-18T11:15:20.001Z,16.2
2019-02-18T11:16:22.414Z,16.1
2019-02-18T11:17:26.065Z,16.2
2019-02-18T11:18:28.509Z,16.2
2019-02-18T11:19:30.926Z,16.2
2019-02-18T11:20:33.366Z,16.2
2019-02-18T11:21:35.230Z,16.2
2019-02-18T11:22:37.434Z,16.1
2019-02-18T11:23:39.595Z,16.1
2019-02-18T11:24:41.479Z,16.1
2019-02-18T11:25:43.915Z,16.2
2019-02-18T11:26:46.342Z,16.1
2019-02-18T11:27:49.094Z,16.1
2019-02-18T11:28:52.205Z,16.1
2019-02-18T11:29:54.643Z,16.1
2019-02-18T11:30:56.814Z,16.1
2019-02-18T11:31:59.003Z,16.2
2019-02-18T11:33:01.152Z,16.2
2019-02-18T11:34:03.584Z,16.1
2019-02-18T11:35:06.032Z,16.1
2019-02-18T11:36:08.448Z,16.1
2019-02-18T11:37:10.877Z,16.2
2019-02-18T11:38:16.544Z,16.1
2019-02-18T11:39:19.163Z,16.1
2019-02-18T11:40:21.943Z,16.1
2019-02-18T11:42:30.611Z,16.1
2019-02-18T11:43:32.760Z,16.2
2019-02-18T11:44:35.183Z,16.2
2019-02-18T11:45:37.409Z,16.2
2019-02-18T11:46:39.837Z,16.2
2019-02-18T11:47:41.985Z,16.2
2019-02-18T11:48:44.165Z,16.2
2019-02-18T11:49:46.613Z,16.1
2019-02-18T11:50:49.037Z,16.1
2019-02-18T11:51:51.167Z,16.1
2019-02-18T11:52:53.816Z,16.2
2019-02-18T11:53:56.164Z,16.1
2019-02-18T11:54:58.594Z,16.2
2019-02-18T11:56:01.071Z,16.2
2019-02-18T11:57:03.246Z,16.2
2019-02-18T11:58:05.138Z,16.2
2019-02-18T11:59:07.572Z,16.2
2019-02-18T12:00:09.727Z,16
2019-02-18T12:01:12.162Z,16.2
2019-02-18T12:02:14.047Z,16.2
2019-02-18T12:03:16.565Z,16.1
2019-02-18T12:04:20.095Z,16.2
2019-02-18T12:05:22.538Z,16.2
2019-02-18T12:06:24.731Z,16.2
2019-02-18T12:07:27.184Z,16.1
2019-02-18T12:08:29.618Z,16.1
2019-02-18T12:09:32.063Z,16.2
2019-02-18T12:10:34.227Z,16.1
2019-02-18T12:11:38.925Z,16.1
2019-02-18T12:12:41.109Z,16.2
2019-02-18T12:13:43.413Z,16.1
2019-02-18T12:14:46.044Z,16.2
2019-02-18T12:15:49.457Z,16.2
2019-02-18T12:16:51.626Z,16.2
2019-02-18T12:17:53.824Z,16.2
2019-02-18T12:18:55.979Z,16.2
2019-02-18T12:19:58.407Z,16.2
2019-02-18T12:21:00.561Z,16.1
2019-02-18T12:22:02.997Z,16.1
2019-02-18T12:23:05.155Z,16.2
2019-02-18T12:24:07.054Z,16.2
2019-02-18T12:25:09.753Z,16.2
2019-02-18T12:26:13.448Z,16.1
2019-02-18T12:27:15.881Z,16.2
2019-02-18T12:28:17.756Z,16.2
2019-02-18T12:30:25.253Z,16.1
2019-02-18T12:31:27.415Z,16.1
2019-02-18T12:32:29.575Z,16.2
2019-02-18T12:33:31.449Z,16.2
2019-02-18T12:34:33.331Z,16.1
2019-02-18T12:35:36.015Z,16.2
2019-02-18T12:36:38.389Z,16.2
2019-02-18T12:37:41.652Z,16.2
2019-02-18T12:38:44.093Z,16.1
2019-02-18T12:39:46.255Z,16.1
2019-02-18T12:40:48.676Z,16.2
2019-02-18T12:41:50.551Z,16.2
2019-02-18T12:42:52.975Z,16.2
2019-02-18T12:43:54.859Z,16.2
2019-02-18T12:44:57.009Z,16.1
2019-02-18T12:45:59.443Z,16.2
2019-02-18T12:47:02.144Z,16.2
2019-02-18T12:48:04.633Z,16.2
2019-02-18T12:49:07.874Z,16.2
2019-02-18T12:50:09.759Z,16.1
2019-02-18T12:51:12.273Z,16
2019-02-18T12:52:14.724Z,16.2
2019-02-18T12:53:16.678Z,16.2
2019-02-18T12:54:18.894Z,16.1
2019-02-18T12:55:21.966Z,16.1
2019-02-18T12:56:24.594Z,16.2
2019-02-18T12:57:27.375Z,16.2
2019-02-18T12:58:30.602Z,16.1
2019-02-18T12:59:33.567Z,16.1
2019-02-18T13:00:36.342Z,16.2
2019-02-18T13:01:38.822Z,16.2
2019-02-18T13:03:45.991Z,16.1
2019-02-18T13:04:48.448Z,16.1
2019-02-18T13:05:50.406Z,16.2
2019-02-18T13:06:52.582Z,16.2
2019-02-18T13:07:54.814Z,16.2
2019-02-18T13:08:58.219Z,16.1
2019-02-18T13:10:00.400Z,16.2
2019-02-18T13:11:02.887Z,16.2
2019-02-18T13:12:05.366Z,16.1
2019-02-18T13:13:07.817Z,16.2
2019-02-18T13:14:10.316Z,16.2
2019-02-18T13:15:12.829Z,16.2
2019-02-18T13:16:15.062Z,16.2
2019-02-18T13:17:17.161Z,16.2
2019-02-18T13:18:19.458Z,16.2
2019-02-18T13:19:22.883Z,16.1
2019-02-18T13:20:25.364Z,16.1
2019-02-18T13:21:27.601Z,16.2
2019-02-18T13:22:30.043Z,16.2
2019-02-18T13:23:32.476Z,16.2
2019-02-18T13:24:36.679Z,16.1
2019-02-18T13:25:41.918Z,16.1
2019-02-18T13:26:44.461Z,16.1
2019-02-18T13:27:46.891Z,16.2
2019-02-18T13:28:49.110Z,16.2
2019-02-18T13:29:51.676Z,16.2
2019-02-18T13:30:56.662Z,16.2
2019-02-18T13:31:58.595Z,16.2
2019-02-18T13:33:01.029Z,16.2
2019-02-18T13:34:03.219Z,16.2
2019-02-18T13:35:05.111Z,16.2
2019-02-18T13:36:07.267Z,16.2
2019-02-18T13:37:09.714Z,16.1
2019-02-18T13:38:11.593Z,16.2
2019-02-18T13:39:13.765Z,16.2
2019-02-18T13:40:16.514Z,16.2
2019-02-18T13:41:20.074Z,16.2
2019-02-18T13:42:22.766Z,16.2
2019-02-18T13:43:25.194Z,16.2
2019-02-18T13:44:27.378Z,16.2
2019-02-18T13:45:29.818Z,16.2
2019-02-18T13:46:31.977Z,16.1
2019-02-18T13:47:34.402Z,16.1
2019-02-18T13:48:36.588Z,16.2
2019-02-18T13:49:38.758Z,16.1
2019-02-18T13:50:42.343Z,16.2
2019-02-18T13:51:44.719Z,16.1
2019-02-18T13:52:48.317Z,16.1
2019-02-18T13:53:50.759Z,16.2
2019-02-18T13:54:52.935Z,16.2
2019-02-18T13:55:55.374Z,16.3
2019-02-18T13:56:57.239Z,16.2
2019-02-18T13:57:59.397Z,16.2
2019-02-18T13:59:01.295Z,16.1
2019-02-18T14:00:03.725Z,16.2
2019-02-18T14:01:06.165Z,16.2
2019-02-18T14:02:08.866Z,16.2
2019-02-18T14:03:11.691Z,16.2
2019-02-18T14:04:15.159Z,16.2
2019-02-18T14:05:17.575Z,16.2
2019-02-18T14:06:19.736Z,16.2
2019-02-18T14:07:21.590Z,16.2
2019-02-18T14:08:23.475Z,16.1
2019-02-18T14:09:25.639Z,16.2
2019-02-18T14:10:27.784Z,16.2
2019-02-18T14:11:29.947Z,16.1